NATIONAL KEY DEER NWR FL US current weather conditions

sailwx.info

Wind from 096 at 5 knots gusting 10

Air temperature 28.9° C
Dewpoint 24.2° C

Last reported at 2016-Jun-25 00:38 UTC.
Time now 2016-Jun-25 01:45 UTC

Location: N 24°43' W 081°23'.
View on Google Maps.

See reports from other nearby stations

  
Tides and Currents Weather Stations Pressure Air Temp Water Temp Dewpoint Dewpoint Depression Visibility Wind Speed Wind Dir Waves Ship Positions
date/time (UTC)wind fromknots sea level pressurealtimeterstation pressurevisibilityair tempwater tempwave heightnotes
2016-Jun-25 00:38 096 5 gusting 10 28.9
2016-Jun-24 23:38 104 3 gusting 9 28.9
2016-Jun-24 22:38 071 6 gusting 12 28.9
2016-Jun-24 21:38 088 4 gusting 9 30.0
2016-Jun-24 20:38 104 5 gusting 10 32.8
2016-Jun-24 19:38 097 4 gusting 10 33.3
2016-Jun-24 18:38 107 5 gusting 10 33.3
2016-Jun-24 17:38 113 5 gusting 10 32.8
2016-Jun-24 16:38 108 4 gusting 8 33.3
2016-Jun-24 15:38 092 5 gusting 8 32.8
2016-Jun-24 14:38 115 4 gusting 8 32.2
2016-Jun-24 13:38 122 4 gusting 9 31.1
2016-Jun-24 12:38 088 4 gusting 7 31.1
2016-Jun-24 11:38 096 3 gusting 6 29.4
2016-Jun-24 10:38 105 2 gusting 6 27.8
2016-Jun-24 09:38 095 3 gusting 7 27.8
2016-Jun-24 08:38 099 2 gusting 7 27.8
2016-Jun-24 07:38 138 0 gusting 5 26.7
2016-Jun-24 06:38 137 1 gusting 4 26.7
2016-Jun-24 05:38 149 1 gusting 6 27.8
2016-Jun-24 04:38 129 3 gusting 7 28.3
2016-Jun-24 03:38 138 3 gusting 6 28.3
2016-Jun-24 02:38 097 3 gusting 8 28.3
2016-Jun-24 01:38 121 3 gusting 6 28.3
2016-Jun-24 00:38 138 3 gusting 7 28.9
2016-Jun-23 23:38 117 3 gusting 7 29.4
2016-Jun-23 22:38 105 3 gusting 8 31.7
2016-Jun-23 21:38 098 4 gusting 7 32.2
2016-Jun-23 20:38 116 4 gusting 9 31.7
2016-Jun-23 19:38 078 4 gusting 8 32.8
2016-Jun-23 18:38 191 2 gusting 6 32.2
2016-Jun-23 17:38 154 3 gusting 8 31.1
2016-Jun-23 16:38 128 5 gusting 9 33.3
2016-Jun-23 15:38 151 5 gusting 10 31.7
2016-Jun-23 14:38 213 3 gusting 8 28.9
2016-Jun-23 13:38 089 4 gusting 7 32.2
2016-Jun-23 12:38 133 3 gusting 6 30.6
2016-Jun-23 11:38 145 0 gusting 3 28.3
2016-Jun-23 10:38 121 0 gusting 5 27.2
2016-Jun-23 09:38 129 0 gusting 7 27.2
2016-Jun-23 08:38 121 2 gusting 5 27.2
2016-Jun-23 07:38 148 1 gusting 5 27.2
2016-Jun-23 06:38 095 2 gusting 7 27.8
2016-Jun-23 05:38 090 4 gusting 7 27.8
2016-Jun-23 04:38 098 1 gusting 6 27.8
2016-Jun-23 03:38 088 2 gusting 5 27.8
2016-Jun-23 02:38 145 0 gusting 6 27.8
2016-Jun-23 01:38 108 0 gusting 5 27.8